createdAt,value
2023-02-11T00:00:04.693Z,10.7
2023-02-11T00:02:09.719Z,11.1
2023-02-11T00:04:11.664Z,13.3
2023-02-11T00:06:13.653Z,13.4
2023-02-11T00:08:15.607Z,14.7
2023-02-11T00:10:17.561Z,12.1
2023-02-11T00:12:19.650Z,14.7
2023-02-11T00:14:21.504Z,13
2023-02-11T00:16:26.617Z,14.2
2023-02-11T00:18:28.474Z,13.6
2023-02-11T00:20:30.422Z,10.3
2023-02-11T00:21:32.957Z,12
2023-02-11T00:23:34.899Z,12.3
2023-02-11T00:25:36.865Z,11.1
2023-02-11T00:27:38.836Z,10.5
2023-02-11T00:33:47.746Z,10
2023-02-11T00:35:50.072Z,11.7
2023-02-11T00:37:51.673Z,9.5
2023-02-11T00:46:02.660Z,9.6
2023-02-11T00:48:04.545Z,8.2
2023-02-11T00:52:08.511Z,8.9
2023-02-11T00:56:12.556Z,7.8
2023-02-11T00:58:17.547Z,8
2023-02-11T01:00:19.516Z,8.3
2023-02-11T01:02:21.472Z,6.8
2023-02-11T01:08:27.360Z,8.5
2023-02-11T01:10:29.324Z,8
2023-02-11T01:17:40.779Z,5.2
2023-02-11T01:21:44.686Z,7.8
2023-02-11T01:23:46.681Z,8.2
2023-02-11T01:25:52.023Z,7.8
2023-02-11T01:27:53.652Z,9.1
2023-02-11T01:29:55.629Z,9.3
2023-02-11T01:31:57.640Z,8.6
2023-02-11T01:33:59.528Z,8.1
2023-02-11T01:36:01.580Z,8
2023-02-11T01:40:08.491Z,8.8
2023-02-11T01:42:10.452Z,8.5
2023-02-11T01:46:14.527Z,10
2023-02-11T01:48:16.370Z,8.7
2023-02-11T01:50:18.432Z,9.6
2023-02-11T01:55:25.634Z,9.3
2023-02-11T01:56:27.523Z,9.3
2023-02-11T01:58:29.312Z,10.2
2023-02-11T02:00:31.287Z,8.4
2023-02-11T02:02:33.283Z,13.1
2023-02-11T02:04:35.328Z,10.5
2023-02-11T02:06:37.150Z,9.7
2023-02-11T02:08:42.190Z,10.7
2023-02-11T02:10:44.132Z,10
2023-02-11T02:15:02.792Z,12.5
2023-02-11T02:17:04.774Z,10.6
2023-02-11T02:19:06.721Z,11.9
2023-02-11T02:21:11.736Z,10.6
2023-02-11T02:23:13.695Z,12.3
2023-02-11T02:25:15.666Z,12.1
2023-02-11T02:27:17.818Z,9.9
2023-02-11T02:33:23.706Z,11.5
2023-02-11T02:41:34.604Z,11.1
2023-02-11T02:45:38.520Z,10.5
2023-02-11T02:47:40.456Z,11.7
2023-02-11T02:53:49.404Z,10.3
2023-02-11T02:55:51.700Z,11.3
2023-02-11T03:04:02.335Z,13.1
2023-02-11T03:08:06.160Z,12.4
2023-02-11T03:09:11.391Z,12.1
2023-02-11T03:11:10.640Z,13.2
2023-02-11T03:17:19.550Z,12
2023-02-11T03:19:21.520Z,11.4
2023-02-11T03:21:23.478Z,9.7
2023-02-11T03:23:25.438Z,11
2023-02-11T03:25:27.391Z,11
2023-02-11T03:27:29.362Z,11.8
2023-02-11T03:29:31.321Z,10.5
2023-02-11T03:35:40.275Z,10.2
2023-02-11T03:37:42.221Z,10.9
2023-02-11T03:39:44.194Z,11.2
2023-02-11T03:41:46.152Z,11.7
2023-02-11T03:43:48.104Z,10.9
2023-02-11T03:45:53.590Z,10.8
2023-02-11T03:47:55.096Z,12.6
2023-02-11T03:49:57.048Z,11.9
2023-02-11T03:51:59.004Z,12.4
2023-02-11T03:54:00.961Z,12.9
2023-02-11T03:56:02.968Z,12.4
2023-02-11T03:58:04.893Z,11.4
2023-02-11T04:00:09.910Z,11.1
2023-02-11T04:02:11.888Z,12.9
2023-02-11T04:09:20.275Z,13.1
2023-02-11T04:11:22.234Z,15.2
2023-02-11T04:13:27.242Z,14.8
2023-02-11T04:15:29.198Z,13
2023-02-11T04:17:31.173Z,13.9
2023-02-11T04:19:33.120Z,12.2
2023-02-11T04:21:35.083Z,14.5
2023-02-11T04:23:37.070Z,13.2
2023-02-11T04:25:39.020Z,12.1
2023-02-11T04:33:49.914Z,12.2
2023-02-11T04:35:52.071Z,15.5
2023-02-11T04:37:53.867Z,14.7
2023-02-11T04:39:55.811Z,15.6
2023-02-11T04:42:00.867Z,15.7
2023-02-11T04:44:02.809Z,17.3
2023-02-11T04:46:04.798Z,16.3
2023-02-11T04:48:53.890Z,16.7
2023-02-11T04:50:08.681Z,18.4
2023-02-11T04:52:10.671Z,19.3
2023-02-11T04:56:17.635Z,18.2
2023-02-11T04:58:19.578Z,18.1
2023-02-11T05:00:21.560Z,20.2
2023-02-11T05:01:24.099Z,16.3
2023-02-11T05:03:26.046Z,21.2
2023-02-11T05:05:27.963Z,18.9
2023-02-11T05:07:29.929Z,18.5
2023-02-11T05:11:36.925Z,20
2023-02-11T05:13:38.869Z,20.2
2023-02-11T05:15:40.830Z,18.4
2023-02-11T05:17:42.789Z,23.3
2023-02-11T05:19:44.749Z,17
2023-02-11T05:23:51.728Z,22.8
2023-02-11T05:25:53.684Z,20
2023-02-11T05:27:55.666Z,22.8
2023-02-11T05:29:57.620Z,24.3
2023-02-11T05:32:01.095Z,21
2023-02-11T05:34:03.029Z,25.7
2023-02-11T05:36:04.989Z,21.7
2023-02-11T05:38:09.975Z,24.4
2023-02-11T05:40:11.951Z,22.3
2023-02-11T05:42:13.914Z,22.5
2023-02-11T05:44:15.925Z,24.1
2023-02-11T05:46:17.874Z,23.1
2023-02-11T05:48:19.777Z,29.8
2023-02-11T05:50:21.743Z,23.6
2023-02-11T05:52:26.755Z,28.3
2023-02-11T05:54:28.721Z,27.3
2023-02-11T05:56:30.663Z,26.7
2023-02-11T05:58:49.700Z,-1
2023-02-11T06:00:56.779Z,23.4
2023-02-11T06:02:58.910Z,15
2023-02-11T06:05:03.752Z,24.5
2023-02-11T06:07:05.720Z,27.5
2023-02-11T06:09:07.685Z,26.3
2023-02-11T06:11:09.652Z,25
2023-02-11T06:13:11.611Z,25.8
2023-02-11T06:15:13.576Z,26.5
2023-02-11T06:17:22.302Z,28.8
2023-02-11T06:19:20.543Z,25.9
2023-02-11T06:21:23.924Z,26.4
2023-02-11T06:23:24.512Z,30.3
2023-02-11T06:25:26.438Z,27.7
2023-02-11T06:27:35.211Z,24.4
2023-02-11T06:29:30.344Z,27.8
2023-02-11T06:31:32.391Z,29.4
2023-02-11T06:35:39.340Z,27.2
2023-02-11T06:37:41.280Z,26.9
2023-02-11T06:39:43.239Z,28.4
2023-02-11T06:41:45.193Z,27.3
2023-02-11T06:43:47.154Z,25.5
2023-02-11T06:45:49.583Z,26.6
2023-02-11T06:47:54.138Z,26.3
2023-02-11T06:49:56.104Z,27.3
2023-02-11T06:51:58.057Z,25.1
2023-02-11T06:53:00.569Z,23.1
2023-02-11T07:01:11.457Z,26.4
2023-02-11T07:03:13.538Z,28.9
2023-02-11T07:05:15.400Z,26.2
2023-02-11T07:07:17.358Z,27.2
2023-02-11T07:09:19.326Z,25.4
2023-02-11T07:11:21.287Z,25.5
2023-02-11T07:13:23.292Z,31.1
2023-02-11T07:15:28.286Z,27.9
2023-02-11T07:17:30.272Z,28.3
2023-02-11T07:19:32.232Z,28.7
2023-02-11T07:21:34.203Z,29.5
2023-02-11T07:23:36.159Z,30.4
2023-02-11T07:25:38.132Z,27.5
2023-02-11T07:27:40.092Z,27.8
2023-02-11T07:29:45.088Z,30.2
2023-02-11T07:31:47.254Z,31.8
2023-02-11T07:33:49.024Z,31.5
2023-02-11T07:35:51.309Z,27.1
2023-02-11T07:37:52.933Z,28.3
2023-02-11T07:39:54.906Z,28.7
2023-02-11T07:41:56.899Z,31.5
2023-02-11T07:44:01.876Z,31.5
2023-02-11T07:46:03.862Z,29.9
2023-02-11T07:48:05.814Z,28.9
2023-02-11T07:49:08.318Z,32.7
2023-02-11T07:51:10.260Z,30.4
2023-02-11T07:53:12.238Z,33.4
2023-02-11T07:55:14.188Z,28.9
2023-02-11T07:57:19.262Z,30.4
2023-02-11T07:59:21.171Z,26.7
2023-02-11T08:01:23.212Z,26.6
2023-02-11T08:03:25.105Z,29.3
2023-02-11T08:05:27.074Z,30.7
2023-02-11T08:07:29.014Z,30.8
2023-02-11T08:09:33.448Z,24.4
2023-02-11T08:11:36.000Z,31.2
2023-02-11T08:13:37.975Z,34.2
2023-02-11T08:15:39.919Z,32
2023-02-11T08:17:41.867Z,28.4
2023-02-11T08:19:43.861Z,31.7
2023-02-11T08:25:53.572Z,30.5
2023-02-11T08:31:59.569Z,31.2
2023-02-11T08:34:01.440Z,32.4
2023-02-11T08:36:03.395Z,30.6
2023-02-11T08:38:05.363Z,28.6
2023-02-11T08:40:10.405Z,33.6
2023-02-11T08:42:12.367Z,30.6
2023-02-11T08:44:14.322Z,29.9
2023-02-11T08:45:16.849Z,31.9
2023-02-11T08:47:18.811Z,28.1
2023-02-11T08:49:20.799Z,30.1
2023-02-11T08:51:22.751Z,30.7
2023-02-11T08:53:27.770Z,30.8
2023-02-11T08:55:29.762Z,31.7
2023-02-11T08:57:31.751Z,29.2
2023-02-11T08:59:33.719Z,30
2023-02-11T09:01:35.792Z,29.8
2023-02-11T09:03:37.809Z,27.8
2023-02-11T09:05:39.645Z,31.7
2023-02-11T09:07:44.660Z,33
2023-02-11T09:09:46.635Z,30.9
2023-02-11T09:13:53.325Z,31.3
2023-02-11T09:15:52.562Z,30.1
2023-02-11T09:17:54.531Z,31.4
2023-02-11T09:19:56.519Z,30.1
2023-02-11T09:22:01.521Z,30.5
2023-02-11T09:24:03.505Z,28.6
2023-02-11T09:26:06.914Z,27.3
2023-02-11T09:28:07.853Z,31.7
2023-02-11T09:30:09.790Z,31.7
2023-02-11T09:32:11.984Z,30
2023-02-11T09:34:13.748Z,30.9
2023-02-11T09:36:18.770Z,31.5
2023-02-11T09:38:20.757Z,31.7
2023-02-11T09:40:22.777Z,29.6
2023-02-11T09:42:45.554Z,31.5
2023-02-11T09:44:47.521Z,30.7
2023-02-11T09:46:49.492Z,27.6
2023-02-11T09:48:54.530Z,29.1
2023-02-11T09:50:56.510Z,28.9
2023-02-11T09:55:00.514Z,26.4
2023-02-11T09:57:02.502Z,28.4
2023-02-11T09:59:04.461Z,26.6
2023-02-11T10:03:12.140Z,30.9
2023-02-11T10:05:14.097Z,27.4
2023-02-11T10:07:16.076Z,26.1
2023-02-11T10:09:18.062Z,27.8
2023-02-11T10:11:31.014Z,26.6
2023-02-11T10:13:22.401Z,26.1
2023-02-11T10:15:24.384Z,27.8
2023-02-11T10:17:44.241Z,27.1
2023-02-11T10:19:31.371Z,25.8
2023-02-11T10:21:33.395Z,25.1
2023-02-11T10:23:35.337Z,23.9
2023-02-11T10:25:37.389Z,23.5
2023-02-11T10:27:39.362Z,22.1
2023-02-11T10:29:41.321Z,24
2023-02-11T10:31:46.381Z,25.1
2023-02-11T10:33:48.357Z,24.4
2023-02-11T10:35:50.320Z,22.6
2023-02-11T10:38:54.825Z,23.6
2023-02-11T10:40:56.817Z,20.9
2023-02-11T10:42:58.835Z,20.4
2023-02-11T10:45:08.816Z,22.1
2023-02-11T10:47:05.828Z,24.4
2023-02-11T10:49:07.812Z,22.6
2023-02-11T10:51:09.815Z,21.7
2023-02-11T10:53:11.765Z,18.5
2023-02-11T10:55:13.756Z,18.2
2023-02-11T10:57:15.730Z,19.7
2023-02-11T11:05:26.744Z,17.8
2023-02-11T11:11:32.686Z,18
2023-02-11T11:13:37.738Z,18
2023-02-11T11:15:39.720Z,17.6
2023-02-11T11:21:45.694Z,15.4
2023-02-11T11:23:49.187Z,17
2023-02-11T11:25:51.124Z,16.5
2023-02-11T11:27:56.193Z,18
2023-02-11T11:29:58.159Z,17
2023-02-11T11:32:00.204Z,16.1
2023-02-11T11:33:02.667Z,15.4
2023-02-11T11:35:04.655Z,14.4
2023-02-11T11:37:06.658Z,17.4
2023-02-11T11:39:08.627Z,15.9
2023-02-11T11:41:13.676Z,15.1
2023-02-11T11:43:15.663Z,17
2023-02-11T11:45:17.656Z,14.2
2023-02-11T11:47:19.653Z,17.1
2023-02-11T11:51:23.620Z,16.2
2023-02-11T11:53:25.607Z,16
2023-02-11T12:01:36.679Z,16.4
2023-02-11T12:03:38.600Z,16.1
2023-02-11T12:05:40.637Z,15.8
2023-02-11T12:09:47.702Z,16
2023-02-11T12:11:49.702Z,13.8
2023-02-11T12:13:51.665Z,14.9
2023-02-11T12:15:53.645Z,15
2023-02-11T12:17:55.648Z,15.6
2023-02-11T12:19:57.653Z,15.3
2023-02-11T12:21:59.627Z,14.7
2023-02-11T12:24:04.682Z,14.7
2023-02-11T12:26:06.661Z,13.7
2023-02-11T12:28:08.698Z,13.3
2023-02-11T12:29:11.190Z,12.9
2023-02-11T12:31:13.336Z,15.3
2023-02-11T12:33:15.160Z,13.8
2023-02-11T12:35:17.180Z,12.9
2023-02-11T12:37:22.235Z,12.2
2023-02-11T12:41:26.252Z,13.4
2023-02-11T12:43:28.199Z,14.5
2023-02-11T12:45:30.269Z,13
2023-02-11T12:47:32.184Z,13.4
2023-02-11T12:51:39.244Z,13.9
2023-02-11T12:53:41.211Z,11.9
2023-02-11T12:56:47.085Z,12.1
2023-02-11T12:57:45.211Z,12.4
2023-02-11T12:59:47.189Z,13.6
2023-02-11T13:01:49.196Z,11.8
2023-02-11T13:07:58.254Z,12.3
2023-02-11T13:10:00.217Z,11.2
2023-02-11T13:12:02.203Z,11.1
2023-02-11T13:14:04.201Z,13.1
2023-02-11T13:16:06.232Z,12.7
2023-02-11T13:18:08.174Z,11.9
2023-02-11T13:20:13.258Z,11.9
2023-02-11T13:22:15.216Z,11.3
2023-02-11T13:24:17.198Z,11.2
2023-02-11T13:26:33.947Z,11.6
2023-02-11T13:28:36.200Z,9.4
2023-02-11T13:30:37.974Z,9.4
2023-02-11T13:32:42.976Z,10.7
2023-02-11T13:34:44.972Z,10
2023-02-11T13:36:46.971Z,9.6
2023-02-11T13:38:48.977Z,8.8
2023-02-11T13:40:51.180Z,9.3
2023-02-11T13:42:52.946Z,9.3
2023-02-11T13:44:54.943Z,8.4
2023-02-11T13:47:00.011Z,7.7
2023-02-11T13:49:02.043Z,9.8
2023-02-11T13:51:04.005Z,7.2
2023-02-11T13:53:05.988Z,9.2
2023-02-11T13:55:07.973Z,8
2023-02-11T13:57:09.973Z,8.3
2023-02-11T13:59:11.942Z,7
2023-02-11T14:01:17.790Z,8.2
2023-02-11T14:03:19.737Z,7.2
2023-02-11T14:05:21.703Z,7.9
2023-02-11T14:07:23.693Z,7.5
2023-02-11T14:09:26.164Z,7
2023-02-11T14:11:28.161Z,5.4
2023-02-11T14:13:30.143Z,4.9
2023-02-11T14:15:35.209Z,5.9
2023-02-11T14:17:37.205Z,5.3
2023-02-11T14:19:39.196Z,6.7
2023-02-11T14:20:41.706Z,6.6
2023-02-11T14:26:47.675Z,5.8
2023-02-11T14:28:52.766Z,6
2023-02-11T14:32:56.770Z,6.5
2023-02-11T14:34:58.717Z,6.5
2023-02-11T14:37:00.726Z,5.4
2023-02-11T14:39:02.800Z,6.7
2023-02-11T14:41:04.718Z,6.6
2023-02-11T14:43:09.771Z,4.8
2023-02-11T14:45:11.738Z,5.2
2023-02-11T14:47:13.742Z,5.8
2023-02-11T14:49:15.749Z,6.1
2023-02-11T14:51:17.725Z,5.5
2023-02-11T14:53:19.735Z,5.7
2023-02-11T14:57:26.749Z,5.5
2023-02-11T14:59:28.748Z,4.6
2023-02-11T15:01:30.780Z,4.4
2023-02-11T15:03:32.738Z,5
2023-02-11T15:05:34.721Z,4.2
2023-02-11T15:07:36.691Z,5.1
2023-02-11T15:09:38.695Z,5.3
2023-02-11T15:11:43.800Z,5.5
2023-02-11T15:13:45.732Z,5.9
2023-02-11T15:15:47.759Z,5.2
2023-02-11T15:18:52.268Z,4.3
2023-02-11T15:20:54.531Z,4.3
2023-02-11T15:22:56.236Z,5.6
2023-02-11T15:25:01.293Z,5.5
2023-02-11T15:27:03.290Z,5.7
2023-02-11T15:29:05.273Z,5.4
2023-02-11T15:31:07.330Z,5.8
2023-02-11T15:33:09.243Z,5.4
2023-02-11T15:35:11.253Z,5
2023-02-11T15:37:13.255Z,6.8
2023-02-11T15:39:18.299Z,5.7
2023-02-11T15:41:20.277Z,4.9
2023-02-11T15:43:22.276Z,5.5
2023-02-11T15:47:26.287Z,5.6
2023-02-11T15:49:28.270Z,5.1
2023-02-11T15:51:30.247Z,6.1
2023-02-11T15:53:35.298Z,5.8
2023-02-11T15:55:37.313Z,6
2023-02-11T15:57:39.298Z,5.2
2023-02-11T15:59:41.300Z,5.7
2023-02-11T16:03:45.276Z,5.8
2023-02-11T16:05:47.266Z,6.8
2023-02-11T16:07:52.317Z,5.6
2023-02-11T16:11:56.293Z,6.4
2023-02-11T16:12:58.837Z,5.7
2023-02-11T16:15:00.878Z,7.4
2023-02-11T16:17:02.812Z,5.1
2023-02-11T16:19:06.159Z,6
2023-02-11T16:21:09.862Z,7.3
2023-02-11T16:23:11.868Z,5.8
2023-02-11T16:25:13.830Z,6.5
2023-02-11T16:27:15.855Z,7.4
2023-02-11T16:29:17.816Z,6
2023-02-11T16:31:19.909Z,6.2
2023-02-11T16:33:21.785Z,5.8
2023-02-11T16:35:26.813Z,7.7
2023-02-11T16:37:28.847Z,6.2
2023-02-11T16:39:30.800Z,6.6
2023-02-11T16:41:32.789Z,6.7
2023-02-11T16:43:34.795Z,7.3
2023-02-11T16:45:36.784Z,6.4
2023-02-11T16:47:38.772Z,5.5
2023-02-11T16:49:43.836Z,6.6
2023-02-11T16:51:45.813Z,6.6
2023-02-11T16:53:47.804Z,7
2023-02-11T17:04:01.086Z,10
2023-02-11T17:08:05.098Z,11.2
2023-02-11T17:12:29.853Z,10.7
2023-02-11T17:14:33.378Z,11.9
2023-02-11T17:16:38.379Z,9.8
2023-02-11T17:24:46.340Z,11.3
2023-02-11T17:30:55.455Z,12.5
2023-02-11T17:32:57.366Z,12.6
2023-02-11T17:41:05.337Z,11.9
2023-02-11T17:49:16.361Z,13.1
2023-02-11T17:59:29.370Z,14.1
2023-02-11T18:01:31.438Z,14.3
2023-02-11T18:03:33.353Z,14.1
2023-02-11T18:04:35.948Z,13.6
2023-02-11T18:06:37.882Z,13.8
2023-02-11T18:08:39.848Z,12.4
2023-02-11T18:10:41.921Z,11.7
2023-02-11T18:12:46.865Z,12.3
2023-02-11T18:14:48.860Z,12.4
2023-02-11T18:16:50.924Z,10.8
2023-02-11T18:22:56.805Z,11.6
2023-02-11T18:24:58.797Z,11.2
2023-02-11T18:29:05.820Z,11
2023-02-11T18:31:07.844Z,12.4
2023-02-11T18:33:09.807Z,12.8
2023-02-11T18:47:26.776Z,12.1
2023-02-11T18:51:30.763Z,13.5
2023-02-11T18:53:32.733Z,11.7
2023-02-11T18:55:37.805Z,12.9
2023-02-11T18:57:39.770Z,12.1
2023-02-11T18:59:41.750Z,14.4
2023-02-11T19:02:46.269Z,14.6
2023-02-11T19:04:48.368Z,15.6
2023-02-11T19:06:50.233Z,15.7
2023-02-11T19:10:58.182Z,13
2023-02-11T19:13:00.169Z,16.4
2023-02-11T19:19:06.113Z,18.1
2023-02-11T19:21:08.097Z,18.1
2023-02-11T19:25:15.117Z,16.4
2023-02-11T19:27:17.119Z,15.8
2023-02-11T19:29:19.115Z,15.7
2023-02-11T19:31:21.186Z,14.4
2023-02-11T19:35:25.061Z,13.9
2023-02-11T19:37:30.091Z,16.9
2023-02-11T19:43:36.030Z,16.9
2023-02-11T19:45:38.021Z,15.9
2023-02-11T19:47:40.022Z,15.7
2023-02-11T19:51:47.005Z,15.6
2023-02-11T19:53:49.006Z,16
2023-02-11T19:55:51.364Z,15.5
2023-02-11T19:56:53.505Z,14.1
2023-02-11T19:58:55.485Z,15.9
2023-02-11T20:00:57.453Z,15.3
2023-02-11T20:02:59.527Z,14.1
2023-02-11T20:05:04.492Z,18.4
2023-02-11T20:07:06.605Z,14.2
2023-02-11T20:09:08.435Z,16.1
2023-02-11T20:11:10.421Z,17.8
2023-02-11T20:13:12.414Z,17.7
2023-02-11T20:15:14.394Z,17
2023-02-11T20:17:16.511Z,17.1
2023-02-11T20:19:21.755Z,16.5
2023-02-11T20:21:23.383Z,17.4
2023-02-11T20:23:25.364Z,15.1
2023-02-11T20:25:27.373Z,17.5
2023-02-11T20:27:29.360Z,17.3
2023-02-11T20:33:38.329Z,19.5
2023-02-11T20:35:40.317Z,17.8
2023-02-11T20:37:44.085Z,17
2023-02-11T20:41:46.431Z,15.2
2023-02-11T20:43:48.206Z,15
2023-02-11T20:45:50.616Z,15.7
2023-02-11T20:47:55.223Z,17.7
2023-02-11T20:54:22.037Z,18.1
2023-02-11T20:56:24.024Z,16.3
2023-02-11T20:58:25.996Z,16.9
2023-02-11T21:00:31.067Z,17.4
2023-02-11T21:02:33.003Z,17
2023-02-11T21:04:34.970Z,19.9
2023-02-11T21:06:36.963Z,17.9
2023-02-11T21:08:38.939Z,20.9
2023-02-11T21:14:47.942Z,18.9
2023-02-11T21:16:49.899Z,17
2023-02-11T21:18:51.869Z,16.1
2023-02-11T21:20:53.829Z,17.2
2023-02-11T21:22:55.829Z,17.4
2023-02-11T21:24:57.777Z,19
2023-02-11T21:26:59.771Z,19.8
2023-02-11T21:29:04.800Z,19
2023-02-11T21:31:07.161Z,17.9
2023-02-11T21:33:08.750Z,21
2023-02-11T21:35:10.728Z,17.5
2023-02-11T21:37:12.720Z,20.1
2023-02-11T21:39:14.692Z,16.6
2023-02-11T21:41:16.679Z,17.1
2023-02-11T21:45:23.691Z,19
2023-02-11T21:47:25.667Z,18.1
2023-02-11T21:48:28.150Z,18.6
2023-02-11T21:50:30.149Z,20
2023-02-11T21:52:32.111Z,19.9
2023-02-11T21:56:39.118Z,18.7
2023-02-11T21:58:41.101Z,17.3
2023-02-11T22:00:43.112Z,18.9
2023-02-11T22:02:45.068Z,19.1
2023-02-11T22:04:47.076Z,17.5
2023-02-11T22:06:49.015Z,19.4
2023-02-11T22:08:51.021Z,19.6
2023-02-11T22:10:56.016Z,19.5
2023-02-11T22:12:57.998Z,19.8
2023-02-11T22:14:59.983Z,17.9
2023-02-11T22:17:01.989Z,17.1
2023-02-11T22:19:03.920Z,19.7
2023-02-11T22:21:05.904Z,18.5
2023-02-11T22:23:07.915Z,20
2023-02-11T22:25:31.467Z,19.8
2023-02-11T22:27:14.902Z,20.3
2023-02-11T22:29:16.857Z,18.3
2023-02-11T22:31:19.098Z,18.8
2023-02-11T22:33:20.972Z,20.9
2023-02-11T22:35:22.810Z,19.9
2023-02-11T22:37:24.787Z,18.4
2023-02-11T22:39:29.809Z,18.6
2023-02-11T22:41:31.778Z,20.5
2023-02-11T22:44:36.292Z,18.7
2023-02-11T22:46:38.288Z,17.9
2023-02-11T22:48:40.226Z,20.1
2023-02-11T22:50:42.177Z,19.7
2023-02-11T22:52:47.205Z,18.4
2023-02-11T22:54:49.182Z,20.5
2023-02-11T23:02:57.140Z,17.5
2023-02-11T23:04:59.064Z,20
2023-02-11T23:07:05.586Z,20.4
2023-02-11T23:09:07.593Z,19.4
2023-02-11T23:11:09.540Z,17.5
2023-02-11T23:13:11.503Z,18.3
2023-02-11T23:15:13.498Z,18.5
2023-02-11T23:17:15.447Z,17
2023-02-11T23:19:17.469Z,18.8
2023-02-11T23:21:22.520Z,18.1
2023-02-11T23:23:24.490Z,18.5
2023-02-11T23:25:26.452Z,17.4
2023-02-11T23:27:28.426Z,19.2
2023-02-11T23:29:30.405Z,18
2023-02-11T23:31:32.493Z,18.3
2023-02-11T23:33:34.350Z,16.9
2023-02-11T23:35:39.374Z,17.7
2023-02-11T23:37:41.334Z,17.3
2023-02-11T23:39:43.352Z,17.5
2023-02-11T23:40:45.813Z,18.1
2023-02-11T23:42:47.792Z,16.7
2023-02-11T23:46:51.721Z,18.6
2023-02-11T23:48:56.749Z,20.1
2023-02-11T23:50:58.726Z,18
2023-02-11T23:53:00.682Z,19.2
2023-02-11T23:55:02.652Z,19
2023-02-11T23:59:06.593Z,18.3
